sensor_id;sensor_type;location;lat;lon;timestamp;pressure;altitude;pressure_sealevel;temperature;humidity
59493;BME280;45497;43.996;22.876;2022-12-16T00:00:01;101190.94;;;3.23;64.55
59493;BME280;45497;43.996;22.876;2022-12-16T00:02:26;101199.56;;;3.36;64.27
59493;BME280;45497;43.996;22.876;2022-12-16T00:04:52;101185.09;;;3.43;64.26
59493;BME280;45497;43.996;22.876;2022-12-16T00:07:17;101186.19;;;3.52;64.19
59493;BME280;45497;43.996;22.876;2022-12-16T00:09:43;101178.19;;;3.42;63.86
59493;BME280;45497;43.996;22.876;2022-12-16T00:12:08;101171.00;;;3.33;64.21
59493;BME280;45497;43.996;22.876;2022-12-16T00:14:34;101185.53;;;3.37;63.91
59493;BME280;45497;43.996;22.876;2022-12-16T00:16:59;101196.97;;;3.36;64.26
59493;BME280;45497;43.996;22.876;2022-12-16T00:19:25;101212.25;;;3.42;63.85
59493;BME280;45497;43.996;22.876;2022-12-16T00:21:50;101207.13;;;3.41;64.08
59493;BME280;45497;43.996;22.876;2022-12-16T00:24:16;101209.84;;;3.39;64.28
59493;BME280;45497;43.996;22.876;2022-12-16T00:26:41;101193.66;;;3.45;64.22
59493;BME280;45497;43.996;22.876;2022-12-16T00:29:07;101186.69;;;3.57;63.67
59493;BME280;45497;43.996;22.876;2022-12-16T00:31:35;101192.78;;;3.58;63.61
59493;BME280;45497;43.996;22.876;2022-12-16T00:34:00;101188.25;;;3.60;63.69
59493;BME280;45497;43.996;22.876;2022-12-16T00:36:26;101194.88;;;3.53;63.92
59493;BME280;45497;43.996;22.876;2022-12-16T00:38:51;101184.41;;;3.53;63.74
59493;BME280;45497;43.996;22.876;2022-12-16T00:41:17;101189.91;;;3.50;63.87
59493;BME280;45497;43.996;22.876;2022-12-16T00:43:43;101173.66;;;3.44;63.69
59493;BME280;45497;43.996;22.876;2022-12-16T00:46:08;101175.78;;;3.39;63.75
59493;BME280;45497;43.996;22.876;2022-12-16T00:48:33;101187.69;;;3.43;63.84
59493;BME280;45497;43.996;22.876;2022-12-16T00:50:59;101168.56;;;3.54;63.97
59493;BME280;45497;43.996;22.876;2022-12-16T00:53:24;101166.56;;;3.58;63.67
59493;BME280;45497;43.996;22.876;2022-12-16T00:55:51;101172.78;;;3.57;63.84
59493;BME280;45497;43.996;22.876;2022-12-16T00:58:25;101176.69;;;3.51;63.95
59493;BME280;45497;43.996;22.876;2022-12-16T01:00:52;101186.69;;;3.57;63.58
59493;BME280;45497;43.996;22.876;2022-12-16T01:03:18;101178.63;;;3.60;63.43
59493;BME280;45497;43.996;22.876;2022-12-16T01:05:43;101170.38;;;3.54;63.51
59493;BME280;45497;43.996;22.876;2022-12-16T01:08:08;101156.53;;;3.52;63.45
59493;BME280;45497;43.996;22.876;2022-12-16T01:10:34;101144.75;;;3.57;63.54
59493;BME280;45497;43.996;22.876;2022-12-16T01:12:59;101124.81;;;3.43;63.72
59493;BME280;45497;43.996;22.876;2022-12-16T01:15:25;101119.31;;;3.35;63.95
59493;BME280;45497;43.996;22.876;2022-12-16T01:17:51;101135.28;;;3.43;63.86
59493;BME280;45497;43.996;22.876;2022-12-16T01:20:16;101144.13;;;3.42;63.83
59493;BME280;45497;43.996;22.876;2022-12-16T01:22:42;101140.03;;;3.38;63.67
59493;BME280;45497;43.996;22.876;2022-12-16T01:25:10;101169.84;;;3.49;63.79
59493;BME280;45497;43.996;22.876;2022-12-16T01:27:37;101151.91;;;3.55;63.99
59493;BME280;45497;43.996;22.876;2022-12-16T01:30:03;101139.50;;;3.57;63.69
59493;BME280;45497;43.996;22.876;2022-12-16T01:32:29;101148.94;;;3.60;63.39
59493;BME280;45497;43.996;22.876;2022-12-16T01:34:54;101163.69;;;3.50;63.41
59493;BME280;45497;43.996;22.876;2022-12-16T01:37:20;101168.31;;;3.46;63.64
59493;BME280;45497;43.996;22.876;2022-12-16T01:39:46;101145.59;;;3.58;63.23
59493;BME280;45497;43.996;22.876;2022-12-16T01:42:13;101123.28;;;3.52;63.16
59493;BME280;45497;43.996;22.876;2022-12-16T01:44:42;101116.63;;;3.48;63.23
59493;BME280;45497;43.996;22.876;2022-12-16T01:47:14;101114.94;;;3.47;63.23
59493;BME280;45497;43.996;22.876;2022-12-16T01:49:46;101123.28;;;3.52;63.32
59493;BME280;45497;43.996;22.876;2022-12-16T01:52:19;101138.81;;;3.55;63.31
59493;BME280;45497;43.996;22.876;2022-12-16T01:54:58;101133.38;;;3.45;62.81
59493;BME280;45497;43.996;22.876;2022-12-16T01:57:30;101126.44;;;3.33;63.24
59493;BME280;45497;43.996;22.876;2022-12-16T01:59:58;101130.84;;;3.33;63.87
59493;BME280;45497;43.996;22.876;2022-12-16T02:02:25;101138.59;;;3.34;63.50
59493;BME280;45497;43.996;22.876;2022-12-16T02:04:51;101143.09;;;3.32;63.43
59493;BME280;45497;43.996;22.876;2022-12-16T02:07:36;101163.41;;;3.41;63.28
59493;BME280;45497;43.996;22.876;2022-12-16T02:10:02;101150.66;;;3.37;63.35
59493;BME280;45497;43.996;22.876;2022-12-16T02:12:55;101160.78;;;3.41;63.38
59493;BME280;45497;43.996;22.876;2022-12-16T02:15:44;101165.81;;;3.44;63.18
59493;BME280;45497;43.996;22.876;2022-12-16T02:24:07;101176.91;;;3.48;63.16
59493;BME280;45497;43.996;22.876;2022-12-16T02:35:34;101165.50;;;3.60;63.25
59493;BME280;45497;43.996;22.876;2022-12-16T02:40:47;101141.19;;;3.58;62.69
59493;BME280;45497;43.996;22.876;2022-12-16T02:45:59;101114.63;;;3.63;63.15
59493;BME280;45497;43.996;22.876;2022-12-16T02:48:25;101115.59;;;3.62;63.31
59493;BME280;45497;43.996;22.876;2022-12-16T02:50:51;101127.84;;;3.61;62.75
59493;BME280;45497;43.996;22.876;2022-12-16T02:53:18;101130.63;;;3.71;62.93
59493;BME280;45497;43.996;22.876;2022-12-16T03:00:58;101125.75;;;3.78;62.80
59493;BME280;45497;43.996;22.876;2022-12-16T03:03:35;101123.88;;;3.91;62.03
59493;BME280;45497;43.996;22.876;2022-12-16T03:06:03;101123.88;;;3.80;62.17
59493;BME280;45497;43.996;22.876;2022-12-16T03:08:33;101125.00;;;3.64;62.38
59493;BME280;45497;43.996;22.876;2022-12-16T03:11:02;101116.31;;;3.64;62.94
59493;BME280;45497;43.996;22.876;2022-12-16T03:13:33;101112.16;;;3.73;62.89
59493;BME280;45497;43.996;22.876;2022-12-16T03:16:00;101104.03;;;3.76;62.52
59493;BME280;45497;43.996;22.876;2022-12-16T03:18:29;101109.78;;;3.70;62.57
59493;BME280;45497;43.996;22.876;2022-12-16T03:21:04;101093.31;;;3.68;62.59
59493;BME280;45497;43.996;22.876;2022-12-16T03:23:37;101101.19;;;3.79;62.63
59493;BME280;45497;43.996;22.876;2022-12-16T03:26:09;101097.88;;;3.88;62.38
59493;BME280;45497;43.996;22.876;2022-12-16T03:28:47;101100.50;;;3.99;62.59
59493;BME280;45497;43.996;22.876;2022-12-16T03:33:55;101085.63;;;4.00;62.48
59493;BME280;45497;43.996;22.876;2022-12-16T03:36:24;101078.69;;;3.88;62.48
59493;BME280;45497;43.996;22.876;2022-12-16T03:38:52;101083.44;;;3.71;63.04
59493;BME280;45497;43.996;22.876;2022-12-16T03:41:20;101080.53;;;3.63;63.12
59493;BME280;45497;43.996;22.876;2022-12-16T03:43:47;101081.41;;;3.75;63.24
59493;BME280;45497;43.996;22.876;2022-12-16T03:46:14;101075.84;;;3.91;62.60
59493;BME280;45497;43.996;22.876;2022-12-16T03:48:45;101081.44;;;3.86;62.35
59493;BME280;45497;43.996;22.876;2022-12-16T03:51:10;101080.81;;;3.82;62.96
59493;BME280;45497;43.996;22.876;2022-12-16T03:53:36;101097.28;;;3.96;62.57
59493;BME280;45497;43.996;22.876;2022-12-16T03:56:01;101089.06;;;4.00;62.57
59493;BME280;45497;43.996;22.876;2022-12-16T03:58:27;101098.97;;;4.08;62.04
59493;BME280;45497;43.996;22.876;2022-12-16T04:00:52;101102.06;;;4.02;62.18
59493;BME280;45497;43.996;22.876;2022-12-16T04:03:18;101126.75;;;3.99;62.72
59493;BME280;45497;43.996;22.876;2022-12-16T04:05:47;101133.28;;;4.05;62.51
59493;BME280;45497;43.996;22.876;2022-12-16T04:08:12;101115.31;;;4.00;62.60
59493;BME280;45497;43.996;22.876;2022-12-16T04:10:38;101097.91;;;4.11;62.69
59493;BME280;45497;43.996;22.876;2022-12-16T04:13:22;101093.59;;;4.10;62.23
59493;BME280;45497;43.996;22.876;2022-12-16T04:16:10;101108.25;;;4.01;62.71
59493;BME280;45497;43.996;22.876;2022-12-16T04:18:57;101095.16;;;4.12;62.55
59493;BME280;45497;43.996;22.876;2022-12-16T04:21:41;101095.88;;;4.14;62.40
59493;BME280;45497;43.996;22.876;2022-12-16T04:24:27;101068.34;;;4.20;62.16
59493;BME280;45497;43.996;22.876;2022-12-16T04:26:52;101060.81;;;4.04;62.52
59493;BME280;45497;43.996;22.876;2022-12-16T04:29:36;101054.16;;;4.00;62.83
59493;BME280;45497;43.996;22.876;2022-12-16T04:32:22;101085.97;;;4.07;62.75
59493;BME280;45497;43.996;22.876;2022-12-16T04:34:48;101076.91;;;4.11;62.58
59493;BME280;45497;43.996;22.876;2022-12-16T04:37:13;101070.59;;;4.13;62.35
59493;BME280;45497;43.996;22.876;2022-12-16T04:39:58;101103.63;;;4.27;62.15
59493;BME280;45497;43.996;22.876;2022-12-16T04:42:41;101100.75;;;4.30;62.45
59493;BME280;45497;43.996;22.876;2022-12-16T04:45:25;101075.94;;;4.23;61.87
59493;BME280;45497;43.996;22.876;2022-12-16T04:48:09;101080.75;;;4.18;62.32
59493;BME280;45497;43.996;22.876;2022-12-16T04:50:53;101086.94;;;4.17;62.63
59493;BME280;45497;43.996;22.876;2022-12-16T04:53:37;101103.75;;;4.14;62.11
59493;BME280;45497;43.996;22.876;2022-12-16T04:56:21;101127.81;;;4.19;62.50
59493;BME280;45497;43.996;22.876;2022-12-16T04:59:05;101122.13;;;4.14;62.36
59493;BME280;45497;43.996;22.876;2022-12-16T05:01:49;101120.56;;;4.23;62.25
59493;BME280;45497;43.996;22.876;2022-12-16T05:04:33;101158.25;;;4.22;62.32
59493;BME280;45497;43.996;22.876;2022-12-16T05:07:17;101181.34;;;3.94;62.86
59493;BME280;45497;43.996;22.876;2022-12-16T05:10:01;101175.50;;;3.91;62.65
59493;BME280;45497;43.996;22.876;2022-12-16T05:12:45;101138.53;;;4.05;62.74
59493;BME280;45497;43.996;22.876;2022-12-16T05:15:29;101179.56;;;4.06;63.43
59493;BME280;45497;43.996;22.876;2022-12-16T05:18:15;101188.31;;;4.18;62.87
59493;BME280;45497;43.996;22.876;2022-12-16T05:21:00;101194.28;;;4.20;62.36
59493;BME280;45497;43.996;22.876;2022-12-16T05:23:44;101172.31;;;4.21;62.81
59493;BME280;45497;43.996;22.876;2022-12-16T05:26:29;101134.38;;;4.14;62.47
59493;BME280;45497;43.996;22.876;2022-12-16T05:29:13;101141.09;;;4.18;62.89
59493;BME280;45497;43.996;22.876;2022-12-16T05:31:57;101161.13;;;4.19;62.65
59493;BME280;45497;43.996;22.876;2022-12-16T05:34:41;101147.53;;;4.25;62.43
59493;BME280;45497;43.996;22.876;2022-12-16T05:37:25;101150.50;;;4.32;62.23
59493;BME280;45497;43.996;22.876;2022-12-16T05:40:09;101167.56;;;4.37;62.28
59493;BME280;45497;43.996;22.876;2022-12-16T05:42:54;101147.66;;;4.24;62.76
59493;BME280;45497;43.996;22.876;2022-12-16T05:45:39;101160.50;;;4.27;62.74
59493;BME280;45497;43.996;22.876;2022-12-16T05:48:23;101162.53;;;4.23;62.70
59493;BME280;45497;43.996;22.876;2022-12-16T05:51:07;101145.97;;;4.34;62.61
59493;BME280;45497;43.996;22.876;2022-12-16T05:53:51;101157.19;;;4.47;61.93
59493;BME280;45497;43.996;22.876;2022-12-16T05:56:35;101159.00;;;4.58;61.98
59493;BME280;45497;43.996;22.876;2022-12-16T05:59:19;101145.63;;;4.61;61.59
59493;BME280;45497;43.996;22.876;2022-12-16T06:02:03;101155.75;;;4.66;61.57
59493;BME280;45497;43.996;22.876;2022-12-16T06:04:47;101142.88;;;4.51;61.63
59493;BME280;45497;43.996;22.876;2022-12-16T06:07:31;101134.41;;;4.48;62.17
59493;BME280;45497;43.996;22.876;2022-12-16T06:10:15;101102.66;;;4.51;61.46
59493;BME280;45497;43.996;22.876;2022-12-16T06:12:59;101099.91;;;4.41;61.87
59493;BME280;45497;43.996;22.876;2022-12-16T06:15:44;101123.69;;;4.39;62.39
59493;BME280;45497;43.996;22.876;2022-12-16T06:18:28;101150.66;;;4.42;62.17
59493;BME280;45497;43.996;22.876;2022-12-16T06:21:12;101129.88;;;4.50;61.64
59493;BME280;45497;43.996;22.876;2022-12-16T06:23:56;101154.78;;;4.55;61.86
59493;BME280;45497;43.996;22.876;2022-12-16T06:26:40;101184.66;;;4.54;61.98
59493;BME280;45497;43.996;22.876;2022-12-16T06:29:24;101235.34;;;4.44;61.84
59493;BME280;45497;43.996;22.876;2022-12-16T06:32:07;101235.13;;;4.47;62.09
59493;BME280;45497;43.996;22.876;2022-12-16T06:34:51;101237.00;;;4.45;62.33
59493;BME280;45497;43.996;22.876;2022-12-16T06:37:35;101196.09;;;4.53;62.09
59493;BME280;45497;43.996;22.876;2022-12-16T06:40:19;101197.41;;;4.59;62.18
59493;BME280;45497;43.996;22.876;2022-12-16T06:43:03;101236.94;;;4.69;62.15
59493;BME280;45497;43.996;22.876;2022-12-16T06:45:47;101224.28;;;4.74;61.54
59493;BME280;45497;43.996;22.876;2022-12-16T06:48:31;101211.88;;;4.76;61.55
59493;BME280;45497;43.996;22.876;2022-12-16T06:51:15;101183.94;;;4.52;62.21
59493;BME280;45497;43.996;22.876;2022-12-16T06:53:59;101186.75;;;4.15;62.94
59493;BME280;45497;43.996;22.876;2022-12-16T06:56:43;101194.59;;;4.04;63.30
59493;BME280;45497;43.996;22.876;2022-12-16T06:59:26;101198.03;;;3.93;63.83
59493;BME280;45497;43.996;22.876;2022-12-16T07:02:11;101215.69;;;3.91;63.88
59493;BME280;45497;43.996;22.876;2022-12-16T07:04:55;101217.59;;;4.00;63.59
59493;BME280;45497;43.996;22.876;2022-12-16T07:07:46;101192.69;;;3.71;64.04
59493;BME280;45497;43.996;22.876;2022-12-16T07:10:31;101190.63;;;3.87;64.38
59493;BME280;45497;43.996;22.876;2022-12-16T07:13:15;101200.47;;;4.08;63.34
59493;BME280;45497;43.996;22.876;2022-12-16T07:15:59;101194.28;;;4.31;63.25
59493;BME280;45497;43.996;22.876;2022-12-16T07:18:43;101192.97;;;4.48;62.84
59493;BME280;45497;43.996;22.876;2022-12-16T07:21:27;101195.38;;;4.63;62.41
59493;BME280;45497;43.996;22.876;2022-12-16T07:24:11;101180.59;;;4.62;62.21
59493;BME280;45497;43.996;22.876;2022-12-16T07:26:55;101165.78;;;4.72;62.52
59493;BME280;45497;43.996;22.876;2022-12-16T07:29:39;101178.66;;;4.75;62.36
59493;BME280;45497;43.996;22.876;2022-12-16T07:32:23;101165.19;;;4.79;61.86
59493;BME280;45497;43.996;22.876;2022-12-16T07:35:07;101164.81;;;4.73;62.44
59493;BME280;45497;43.996;22.876;2022-12-16T07:37:51;101166.00;;;4.80;62.03
59493;BME280;45497;43.996;22.876;2022-12-16T07:40:35;101186.41;;;4.88;62.37
59493;BME280;45497;43.996;22.876;2022-12-16T07:43:19;101185.81;;;4.95;61.79
59493;BME280;45497;43.996;22.876;2022-12-16T07:46:03;101184.75;;;4.87;61.82
59493;BME280;45497;43.996;22.876;2022-12-16T07:48:47;101187.63;;;4.84;62.18
59493;BME280;45497;43.996;22.876;2022-12-16T07:51:31;101179.59;;;4.96;62.81
59493;BME280;45497;43.996;22.876;2022-12-16T07:54:15;101164.91;;;5.05;62.06
59493;BME280;45497;43.996;22.876;2022-12-16T07:56:59;101173.38;;;5.09;61.94
59493;BME280;45497;43.996;22.876;2022-12-16T07:59:43;101144.22;;;5.12;62.45
59493;BME280;45497;43.996;22.876;2022-12-16T08:02:27;101139.16;;;5.20;61.68
59493;BME280;45497;43.996;22.876;2022-12-16T08:05:11;101145.28;;;5.21;61.91
59493;BME280;45497;43.996;22.876;2022-12-16T08:07:54;101151.72;;;5.16;61.97
59493;BME280;45497;43.996;22.876;2022-12-16T08:10:38;101137.91;;;5.03;62.26
59493;BME280;45497;43.996;22.876;2022-12-16T08:13:22;101163.69;;;5.09;62.52
59493;BME280;45497;43.996;22.876;2022-12-16T08:16:06;101173.56;;;5.28;61.92
59493;BME280;45497;43.996;22.876;2022-12-16T08:18:50;101190.88;;;5.31;61.94
59493;BME280;45497;43.996;22.876;2022-12-16T08:21:34;101190.03;;;5.30;61.37
59493;BME280;45497;43.996;22.876;2022-12-16T08:24:18;101195.06;;;5.33;61.58
59493;BME280;45497;43.996;22.876;2022-12-16T08:27:02;101211.16;;;5.40;61.20
59493;BME280;45497;43.996;22.876;2022-12-16T08:29:46;101204.19;;;5.50;61.40
59493;BME280;45497;43.996;22.876;2022-12-16T08:32:30;101181.81;;;5.56;60.97
59493;BME280;45497;43.996;22.876;2022-12-16T08:35:14;101164.38;;;5.55;60.88
59493;BME280;45497;43.996;22.876;2022-12-16T08:37:58;101165.78;;;5.59;60.84
59493;BME280;45497;43.996;22.876;2022-12-16T08:40:43;101143.47;;;5.53;60.78
59493;BME280;45497;43.996;22.876;2022-12-16T08:43:30;101134.06;;;5.72;61.24
59493;BME280;45497;43.996;22.876;2022-12-16T08:46:14;101166.38;;;5.63;60.51
59493;BME280;45497;43.996;22.876;2022-12-16T08:48:58;101173.69;;;5.59;60.94
59493;BME280;45497;43.996;22.876;2022-12-16T08:51:42;101163.09;;;5.70;60.88
59493;BME280;45497;43.996;22.876;2022-12-16T08:54:26;101159.91;;;5.88;60.65
59493;BME280;45497;43.996;22.876;2022-12-16T08:57:10;101166.66;;;5.81;60.61
59493;BME280;45497;43.996;22.876;2022-12-16T08:59:54;101161.00;;;5.64;60.72
59493;BME280;45497;43.996;22.876;2022-12-16T09:02:38;101121.41;;;5.66;60.64
59493;BME280;45497;43.996;22.876;2022-12-16T09:05:22;101154.59;;;5.78;60.91
59493;BME280;45497;43.996;22.876;2022-12-16T09:08:06;101141.88;;;5.62;60.71
59493;BME280;45497;43.996;22.876;2022-12-16T09:10:50;101127.84;;;5.73;60.79
59493;BME280;45497;43.996;22.876;2022-12-16T09:13:34;101127.72;;;5.74;60.54
59493;BME280;45497;43.996;22.876;2022-12-16T09:16:18;101143.53;;;5.63;60.32
59493;BME280;45497;43.996;22.876;2022-12-16T09:19:02;101157.53;;;5.64;60.58
59493;BME280;45497;43.996;22.876;2022-12-16T09:21:46;101174.81;;;5.45;60.86
59493;BME280;45497;43.996;22.876;2022-12-16T09:24:30;101156.44;;;5.34;61.38
59493;BME280;45497;43.996;22.876;2022-12-16T09:27:14;101143.34;;;5.55;61.11
59493;BME280;45497;43.996;22.876;2022-12-16T09:29:58;101121.41;;;5.66;61.02
59493;BME280;45497;43.996;22.876;2022-12-16T09:32:45;101145.59;;;5.60;60.75
59493;BME280;45497;43.996;22.876;2022-12-16T09:35:30;101170.66;;;5.43;61.13
59493;BME280;45497;43.996;22.876;2022-12-16T09:38:14;101135.94;;;5.16;61.66
59493;BME280;45497;43.996;22.876;2022-12-16T09:41:25;101141.22;;;5.16;61.88
59493;BME280;45497;43.996;22.876;2022-12-16T09:47:13;101126.59;;;5.56;61.77
59493;BME280;45497;43.996;22.876;2022-12-16T09:50:01;101114.09;;;5.48;61.37
59493;BME280;45497;43.996;22.876;2022-12-16T09:52:54;101064.66;;;5.42;62.58
59493;BME280;45497;43.996;22.876;2022-12-16T09:55:42;101090.31;;;5.50;61.47
59493;BME280;45497;43.996;22.876;2022-12-16T09:58:35;101090.34;;;5.60;61.02
59493;BME280;45497;43.996;22.876;2022-12-16T10:01:21;101119.53;;;5.35;61.57
59493;BME280;45497;43.996;22.876;2022-12-16T10:04:06;101133.59;;;5.46;61.42
59493;BME280;45497;43.996;22.876;2022-12-16T10:06:57;101138.75;;;5.36;61.56
59493;BME280;45497;43.996;22.876;2022-12-16T10:12:58;101124.72;;;5.47;62.00
59493;BME280;45497;43.996;22.876;2022-12-16T10:19:19;101121.34;;;5.56;61.37
59493;BME280;45497;43.996;22.876;2022-12-16T10:25:18;101118.88;;;5.97;61.54
59493;BME280;45497;43.996;22.876;2022-12-16T10:30:50;101088.31;;;5.84;61.02
59493;BME280;45497;43.996;22.876;2022-12-16T10:33:34;101075.59;;;6.10;61.07
59493;BME280;45497;43.996;22.876;2022-12-16T10:36:20;101076.56;;;6.19;60.51
59493;BME280;45497;43.996;22.876;2022-12-16T10:39:18;101095.09;;;6.08;60.43
59493;BME280;45497;43.996;22.876;2022-12-16T10:42:15;101076.94;;;5.84;60.44
59493;BME280;45497;43.996;22.876;2022-12-16T10:45:02;101092.28;;;5.79;60.49
59493;BME280;45497;43.996;22.876;2022-12-16T10:47:46;101077.34;;;5.79;60.60
59493;BME280;45497;43.996;22.876;2022-12-16T10:50:30;101087.34;;;5.64;61.10
59493;BME280;45497;43.996;22.876;2022-12-16T10:53:24;101085.06;;;5.71;61.47
59493;BME280;45497;43.996;22.876;2022-12-16T10:56:38;101089.44;;;5.91;60.85
59493;BME280;45497;43.996;22.876;2022-12-16T10:59:38;101085.34;;;6.20;60.73
59493;BME280;45497;43.996;22.876;2022-12-16T11:02:26;101091.19;;;6.33;60.23
59493;BME280;45497;43.996;22.876;2022-12-16T11:05:32;101080.50;;;6.25;59.87
59493;BME280;45497;43.996;22.876;2022-12-16T11:11:21;101073.47;;;6.35;60.42
59493;BME280;45497;43.996;22.876;2022-12-16T11:14:29;101070.38;;;6.30;59.74
59493;BME280;45497;43.996;22.876;2022-12-16T11:17:23;101060.59;;;6.42;60.18
59493;BME280;45497;43.996;22.876;2022-12-16T11:20:23;101045.94;;;6.59;59.90
59493;BME280;45497;43.996;22.876;2022-12-16T11:23:15;101059.97;;;6.59;59.88
59493;BME280;45497;43.996;22.876;2022-12-16T11:26:05;101063.69;;;6.57;60.43
59493;BME280;45497;43.996;22.876;2022-12-16T11:29:08;101056.47;;;6.49;60.10
59493;BME280;45497;43.996;22.876;2022-12-16T11:31:58;101079.03;;;6.51;60.46
59493;BME280;45497;43.996;22.876;2022-12-16T11:34:46;101064.38;;;6.59;59.91
59493;BME280;45497;43.996;22.876;2022-12-16T11:37:32;101066.88;;;6.50;59.89
59493;BME280;45497;43.996;22.876;2022-12-16T11:40:17;101037.19;;;6.48;59.82
59493;BME280;45497;43.996;22.876;2022-12-16T11:43:02;101020.16;;;6.43;59.55
59493;BME280;45497;43.996;22.876;2022-12-16T11:45:50;101025.28;;;6.54;59.76
59493;BME280;45497;43.996;22.876;2022-12-16T11:48:51;101010.88;;;6.48;59.48
59493;BME280;45497;43.996;22.876;2022-12-16T11:51:38;101014.97;;;6.31;60.00
59493;BME280;45497;43.996;22.876;2022-12-16T11:54:27;101002.22;;;6.37;59.65
59493;BME280;45497;43.996;22.876;2022-12-16T11:57:22;101023.75;;;6.51;59.80
59493;BME280;45497;43.996;22.876;2022-12-16T12:00:13;101014.75;;;6.54;59.43
59493;BME280;45497;43.996;22.876;2022-12-16T12:03:08;101028.44;;;6.38;59.34
59493;BME280;45497;43.996;22.876;2022-12-16T12:09:02;101063.66;;;6.47;59.73
59493;BME280;45497;43.996;22.876;2022-12-16T12:14:58;101031.94;;;6.58;59.89
59493;BME280;45497;43.996;22.876;2022-12-16T12:17:56;101033.06;;;6.65;59.25
59493;BME280;45497;43.996;22.876;2022-12-16T12:30:10;101053.75;;;6.29;59.78
59493;BME280;45497;43.996;22.876;2022-12-16T12:42:31;101054.97;;;6.66;59.46
59493;BME280;45497;43.996;22.876;2022-12-16T12:48:55;101042.47;;;6.58;59.24
59493;BME280;45497;43.996;22.876;2022-12-16T12:54:44;101031.41;;;6.74;59.28
59493;BME280;45497;43.996;22.876;2022-12-16T12:57:31;101055.66;;;6.68;59.40
59493;BME280;45497;43.996;22.876;2022-12-16T13:00:20;101031.13;;;6.67;59.65
59493;BME280;45497;43.996;22.876;2022-12-16T13:05:54;101033.78;;;6.77;59.38
59493;BME280;45497;43.996;22.876;2022-12-16T13:11:26;101040.16;;;7.04;59.03
59493;BME280;45497;43.996;22.876;2022-12-16T13:17:16;101038.06;;;7.07;58.87
59493;BME280;45497;43.996;22.876;2022-12-16T13:20:01;101035.72;;;7.14;58.54
59493;BME280;45497;43.996;22.876;2022-12-16T13:22:46;101038.63;;;7.21;58.54
59493;BME280;45497;43.996;22.876;2022-12-16T13:25:36;101041.81;;;7.15;58.44
59493;BME280;45497;43.996;22.876;2022-12-16T13:28:23;101051.13;;;7.09;58.44
59493;BME280;45497;43.996;22.876;2022-12-16T13:31:08;101067.34;;;7.04;58.44
59493;BME280;45497;43.996;22.876;2022-12-16T13:33:53;101050.84;;;7.02;58.36
59493;BME280;45497;43.996;22.876;2022-12-16T13:36:52;101032.38;;;7.12;58.74
59493;BME280;45497;43.996;22.876;2022-12-16T13:39:37;101014.91;;;7.01;58.59
59493;BME280;45497;43.996;22.876;2022-12-16T13:42:48;101025.88;;;6.87;58.80
59493;BME280;45497;43.996;22.876;2022-12-16T13:45:40;101044.75;;;6.92;58.47
59493;BME280;45497;43.996;22.876;2022-12-16T13:48:38;101044.31;;;6.97;58.46
59493;BME280;45497;43.996;22.876;2022-12-16T13:57:14;101066.66;;;7.02;58.58
59493;BME280;45497;43.996;22.876;2022-12-16T14:00:02;101083.72;;;7.18;58.39
59493;BME280;45497;43.996;22.876;2022-12-16T14:02:49;101069.69;;;7.27;57.84
59493;BME280;45497;43.996;22.876;2022-12-16T14:05:36;101055.28;;;7.02;57.74
59493;BME280;45497;43.996;22.876;2022-12-16T14:08:25;101073.31;;;6.97;58.08
59493;BME280;45497;43.996;22.876;2022-12-16T14:11:25;101055.13;;;7.03;58.13
59493;BME280;45497;43.996;22.876;2022-12-16T14:14:35;101048.91;;;7.04;58.04
59493;BME280;45497;43.996;22.876;2022-12-16T14:17:34;101063.59;;;7.07;58.16
59493;BME280;45497;43.996;22.876;2022-12-16T14:20:20;101044.88;;;7.10;58.05
59493;BME280;45497;43.996;22.876;2022-12-16T14:26:11;101072.88;;;7.11;57.99
59493;BME280;45497;43.996;22.876;2022-12-16T14:28:55;101077.22;;;7.12;57.88
59493;BME280;45497;43.996;22.876;2022-12-16T14:31:41;101105.81;;;7.17;57.76
59493;BME280;45497;43.996;22.876;2022-12-16T14:34:32;101079.13;;;7.00;58.07
59493;BME280;45497;43.996;22.876;2022-12-16T14:37:34;101083.03;;;7.06;58.09
59493;BME280;45497;43.996;22.876;2022-12-16T14:40:22;101065.94;;;7.00;58.32
59493;BME280;45497;43.996;22.876;2022-12-16T14:43:33;101052.94;;;6.99;58.16
59493;BME280;45497;43.996;22.876;2022-12-16T14:46:28;101081.50;;;7.03;57.95
59493;BME280;45497;43.996;22.876;2022-12-16T14:49:25;101077.06;;;7.04;58.09
59493;BME280;45497;43.996;22.876;2022-12-16T14:52:18;101068.59;;;7.10;58.03
59493;BME280;45497;43.996;22.876;2022-12-16T14:55:27;101064.84;;;7.13;58.01
59493;BME280;45497;43.996;22.876;2022-12-16T14:58:14;101055.44;;;7.10;58.18
59493;BME280;45497;43.996;22.876;2022-12-16T15:01:20;101083.88;;;7.06;57.77
59493;BME280;45497;43.996;22.876;2022-12-16T15:04:13;101084.00;;;7.05;58.13
59493;BME280;45497;43.996;22.876;2022-12-16T15:06:58;101094.56;;;6.95;58.37
59493;BME280;45497;43.996;22.876;2022-12-16T15:09:43;101065.00;;;6.92;58.28
59493;BME280;45497;43.996;22.876;2022-12-16T15:12:33;101073.03;;;7.00;58.33
59493;BME280;45497;43.996;22.876;2022-12-16T15:15:28;101061.53;;;7.11;58.11
59493;BME280;45497;43.996;22.876;2022-12-16T15:18:19;101084.56;;;7.08;57.94
59493;BME280;45497;43.996;22.876;2022-12-16T15:21:06;101085.81;;;7.04;58.40
59493;BME280;45497;43.996;22.876;2022-12-16T15:23:50;101091.22;;;7.03;58.06
59493;BME280;45497;43.996;22.876;2022-12-16T15:26:35;101116.16;;;6.89;58.24
59493;BME280;45497;43.996;22.876;2022-12-16T15:29:37;101095.63;;;6.83;58.59
59493;BME280;45497;43.996;22.876;2022-12-16T15:38:11;101081.50;;;7.03;58.22
59493;BME280;45497;43.996;22.876;2022-12-16T15:40:55;101078.03;;;7.03;58.07
59493;BME280;45497;43.996;22.876;2022-12-16T15:43:39;101074.41;;;6.94;58.11
59493;BME280;45497;43.996;22.876;2022-12-16T15:46:25;101056.81;;;6.85;58.07